tititudorancea.com
Station Historical Data
Daily Summary for March 3, 2018 Units:  Metric    English   Both
« Previous Day
Next Day »
Daily Weekly Monthly Yearly Custom
  High: Low: Average:
Temperature: -17.8 °C 13.4 °C 19.6 °C
Dew Point: -17.8 °C 7.4 °C 9.1 °C
Humidity: Humidity % 30 % 52 %
Wind Speed: 0 km/h 0 km/h 9.2 km/h
Wind Gust: 0 km/h - -
Wind:- - WSW
Pressure: 0 hPa 1006.3 hPa -
Precipitation: 0 mm    
Historical Graphs
 
 
Ararat weather Find more about Weather in Ararat, AU


 



 


Tabular Data for March 3, 2018
Time Temperature Dew Point Pressure Wind Wind Speed Wind Gust Humidity Rainfall Rate (Hourly)
-17.8 °C -17.8 °C 0 hPa Calm     Humidity % 0 mm
00:00 16.2 °C 7.9 °C 1008 hPa SW 2.1 km/h 5.6 km/h 58 % 0 mm
00:05 15.9 °C 8.2 °C 1008 hPa Calm     60 % 0 mm
00:10 15.7 °C 8.2 °C 1008.4 hPa Calm     61 % 0 mm
00:15 15.6 °C 8.1 °C 1008 hPa Calm     61 % 0 mm
00:20 15.5 °C 8.2 °C 1008 hPa Calm     62 % 0 mm
00:25 15.4 °C 7.9 °C 1008 hPa SSW 0.8 km/h 3.7 km/h 61 % 0 mm
00:30 15.4 °C 7.9 °C 1008 hPa SW 0.6 km/h 1.9 km/h 61 % 0 mm
00:35 15.3 °C 7.6 °C 1008 hPa SSW 1.6 km/h 3.7 km/h 60 % 0 mm
00:40 15.3 °C 7.8 °C 1008 hPa Calm     61 % 0 mm
00:45 15.3 °C 7.6 °C 1008 hPa SSW 0.2 km/h 1.9 km/h 60 % 0 mm
00:50 15.4 °C 7.7 °C 1008 hPa Calm   1.9 km/h 60 % 0 mm
00:55 15.4 °C 7.7 °C 1008 hPa Calm     60 % 0 mm
01:00 15.3 °C 7.6 °C 1008 hPa Calm     60 % 0 mm
01:05 15.2 °C 7.7 °C 1008 hPa Calm     61 % 0 mm
01:10 15.1 °C 7.6 °C 1008 hPa Calm     61 % 0 mm
01:15 14.9 °C 7.5 °C 1008 hPa Calm     61 % 0 mm
01:20 14.9 °C 7.7 °C 1008 hPa Calm     62 % 0 mm
01:25 14.7 °C 7.7 °C 1008 hPa Calm     63 % 0 mm
01:30 14.8 °C 7.6 °C 1008 hPa Calm     62 % 0 mm
01:35 14.8 °C 7.6 °C 1008 hPa Calm     62 % 0 mm
01:40 14.9 °C 7.7 °C 1007.7 hPa Calm     62 % 0 mm
01:45 14.9 °C 7.7 °C 1007.7 hPa SSW 1.4 km/h 3.7 km/h 62 % 0 mm
01:50 15 °C 7.6 °C 1007.7 hPa SW 2.6 km/h 3.7 km/h 61 % 0 mm
01:55 15.1 °C 7.7 °C 1007.7 hPa SW 1.9 km/h 5.6 km/h 61 % 0 mm
02:00 15.1 °C 7.7 °C 1007.7 hPa SSW 0.5 km/h 1.9 km/h 61 % 0 mm
02:05 15.1 °C 7.6 °C 1007.7 hPa Calm     61 % 0 mm
02:10 14.8 °C 7.4 °C 1007.7 hPa Calm     61 % 0 mm
02:15 14.7 °C 7.5 °C 1007.7 hPa Calm     62 % 0 mm
02:20 14.6 °C 7.4 °C 1007.7 hPa Calm     62 % 0 mm
02:25 14.5 °C 7.6 °C 1007.3 hPa SSW 0.5 km/h 1.9 km/h 63 % 0 mm
02:30 14.3 °C 7.6 °C 1007.3 hPa SSW 1.8 km/h 5.6 km/h 64 % 0 mm
02:35 14.2 °C 7.4 °C 1007.3 hPa Calm     64 % 0 mm
02:40 14.3 °C 7.8 °C 1007.3 hPa North 2.6 km/h 3.7 km/h 65 % 0 mm
02:45 14.5 °C 7.8 °C 1007.3 hPa SSW 2.6 km/h 3.7 km/h 64 % 0 mm
02:50 14.7 °C 7.7 °C 1007.3 hPa Calm     63 % 0 mm
02:55 14.8 °C 7.8 °C 1007.3 hPa Calm     63 % 0 mm
03:00 14.8 °C 7.8 °C 1007.3 hPa Calm     63 % 0 mm
03:05 14.7 °C 7.7 °C 1007.3 hPa Calm     63 % 0 mm
03:10 14.4 °C 7.7 °C 1007 hPa Calm     64 % 0 mm
03:15 14.2 °C 7.7 °C 1007 hPa Calm     65 % 0 mm
03:20 14 °C 7.7 °C 1007 hPa Calm     66 % 0 mm
03:25 13.9 °C 7.8 °C 1007 hPa Calm     67 % 0 mm
03:30 13.7 °C 7.7 °C 1007 hPa SW 0.6 km/h 3.2 km/h 67 % 0 mm
03:35 13.5 °C 7.9 °C 1007 hPa SSW 1.9 km/h 3.7 km/h 69 % 0 mm
03:40 13.5 °C 7.9 °C 1007 hPa Calm     69 % 0 mm
03:45 13.5 °C 7.9 °C 1007 hPa SW 3.5 km/h 4.8 km/h 69 % 0 mm
03:50 13.6 °C 8 °C 1007 hPa North 1.8 km/h 3.7 km/h 69 % 0 mm
03:55 14 °C 8.2 °C 1006.7 hPa SSW 1 km/h 3.2 km/h 68 % 0 mm
04:00 14.4 °C 8.2 °C 1006.7 hPa SW 2.9 km/h 5.6 km/h 66 % 0 mm
04:05 14.8 °C 8.1 °C 1006.7 hPa SSW 2.6 km/h 5.6 km/h 64 % 0 mm
04:10 15.2 °C 8 °C 1006.7 hPa SSW 2.4 km/h 3.7 km/h 62 % 0 mm
04:15 15.5 °C 8 °C 1006.7 hPa North 1.9 km/h 3.7 km/h 61 % 0 mm
04:20 15.7 °C 8.2 °C 1006.3 hPa SW 0.6 km/h 1.9 km/h 61 % 0 mm
04:25 15.8 °C 8 °C 1006.3 hPa SW 3.1 km/h 5.6 km/h 60 % 0 mm
04:30 15.8 °C 8.3 °C 1006.3 hPa SSW 0.3 km/h 1.9 km/h 61 % 0 mm
04:35 15.7 °C 8.2 °C 1006.7 hPa SSW 3.4 km/h 3.7 km/h 61 % 0 mm
04:40 15.7 °C 8.2 °C 1006.7 hPa SSW 3.7 km/h 5.6 km/h 61 % 0 mm
04:45 15.7 °C 8.2 °C 1006.7 hPa Calm     61 % 0 mm
04:50 15.7 °C 8.2 °C 1006.7 hPa SW 2.7 km/h 5.6 km/h 61 % 0 mm
04:55 15.6 °C 8.1 °C 1006.7 hPa Calm     61 % 0 mm
05:00 15.4 °C 8.2 °C 1006.7 hPa Calm   1.9 km/h 62 % 0 mm
05:03 15.3 °C 8.1 °C 1006.7 hPa Calm     62 % 0 mm
05:08 15.2 °C 8.2 °C 1006.7 hPa Calm     63 % 0 mm
05:13 15.1 °C 8.1 °C 1006.3 hPa Calm     63 % 0 mm
05:18 14.8 °C 8.1 °C 1006.7 hPa SSW 3.2 km/h 5.6 km/h 64 % 0 mm
05:23 14.5 °C 8 °C 1006.3 hPa North 0.6 km/h 1.9 km/h 65 % 0 mm
05:28 14.3 °C 7.8 °C 1006.3 hPa SSW 1.6 km/h 3.7 km/h 65 % 0 mm
05:33 14.1 °C 7.8 °C 1006.3 hPa SSW 4.5 km/h 5.6 km/h 66 % 0 mm
05:38 14.1 °C 7.8 °C 1006.3 hPa SSW 3.7 km/h 5.6 km/h 66 % 0 mm
05:43 14.1 °C 7.8 °C 1006.3 hPa North 5.5 km/h 6.4 km/h 66 % 0 mm
05:48 14.2 °C 7.9 °C 1006.3 hPa SSW 4 km/h 5.6 km/h 66 % 0 mm
05:53 14.2 °C 7.9 °C 1006.3 hPa SSW 0.5 km/h 1.9 km/h 66 % 0 mm
05:58 14.2 °C 7.9 °C 1006.3 hPa Calm     66 % 0 mm
06:03 14.1 °C 7.8 °C 1006.3 hPa Calm     66 % 0 mm
06:08 14 °C 7.9 °C 1006.3 hPa Calm     67 % 0 mm
06:13 13.8 °C 8 °C 1006.3 hPa SSW 3.9 km/h 5.6 km/h 68 % 0 mm
06:18 13.7 °C 7.9 °C 1006.3 hPa SSW 2.9 km/h 5.6 km/h 68 % 0 mm
06:23 13.5 °C 7.9 °C 1006.3 hPa North 0.6 km/h 3.7 km/h 69 % 0 mm
06:28 13.4 °C 7.9 °C 1006.7 hPa SSW 0.6 km/h 3.2 km/h 69 % 0 mm
06:33 13.6 °C 8.2 °C 1006.7 hPa SSW 3.2 km/h 5.6 km/h 70 % 0 mm
06:38 13.9 °C 8.3 °C 1006.7 hPa SSW 3.1 km/h 5.6 km/h 69 % 0 mm
06:43 14.4 °C 8.4 °C 1006.7 hPa North 3.2 km/h 5.6 km/h 67 % 0 mm
06:48 15.1 °C 8.6 °C 1006.7 hPa SSW 1.9 km/h 3.7 km/h 65 % 0 mm
06:53 15.3 °C 8.3 °C 1006.7 hPa SW 3.9 km/h 5.6 km/h 63 % 0 mm
06:58 15.4 °C 8.2 °C 1006.7 hPa SSW 1.4 km/h 3.7 km/h 62 % 0 mm
07:03 15.4 °C 8.2 °C 1007 hPa SSW 1.4 km/h 3.7 km/h 62 % 0 mm
07:08 15.3 °C 8.1 °C 1007 hPa SSW 2.3 km/h 5.6 km/h 62 % 0 mm
07:13 15.2 °C 8.2 °C 1007 hPa SSW 3.7 km/h 5.6 km/h 63 % 0 mm
07:18 15.2 °C 8.2 °C 1007 hPa SSW 2.1 km/h 3.7 km/h 63 % 0 mm
07:23 15.1 °C 8.1 °C 1007 hPa SSW 3.4 km/h 5.6 km/h 63 % 0 mm
07:28 14.8 °C 8.1 °C 1007 hPa SSW 3.4 km/h 5.6 km/h 64 % 0 mm
07:33 14.6 °C 8.1 °C 1007 hPa SSW 3.4 km/h 5.6 km/h 65 % 0 mm
07:38 14.5 °C 8 °C 1007 hPa SSW 2.6 km/h 5.6 km/h 65 % 0 mm
07:43 14.4 °C 8.2 °C 1007 hPa SSW 3.9 km/h 5.6 km/h 66 % 0 mm
07:48 14.6 °C 8.1 °C 1007 hPa SSW 4.3 km/h 5.6 km/h 65 % 0 mm
07:53 14.7 °C 8.2 °C 1007 hPa North 2.1 km/h 5.6 km/h 65 % 0 mm
07:58 15 °C 8.2 °C 1007 hPa SSW 4.7 km/h 5.6 km/h 64 % 0 mm
08:03 15.4 °C 8.4 °C 1007 hPa SSW 4.2 km/h 5.6 km/h 63 % 0 mm
08:08 15.8 °C 8.5 °C 1007 hPa SSW 3.5 km/h 5.6 km/h 62 % 0 mm
08:13 16.2 °C 8.6 °C 1007.3 hPa SSW 3.1 km/h 5.6 km/h 61 % 0 mm
08:18 16.5 °C 8.7 °C 1007 hPa SW 6.1 km/h 7.4 km/h 60 % 0 mm
08:23 16.9 °C 9.1 °C 1007 hPa SSW 4.2 km/h 5.6 km/h 60 % 0 mm
08:28 17.3 °C 8.9 °C 1007 hPa SSW 6.6 km/h 7.4 km/h 58 % 0 mm
08:33 17.7 °C 9.1 °C 1007.3 hPa North 8 km/h 13 km/h 57 % 0 mm
08:38 18.1 °C 9.2 °C 1007.3 hPa West 7.6 km/h 11.1 km/h 56 % 0 mm
08:43 18.8 °C 9.3 °C 1007 hPa NW 13 km/h 13 km/h 54 % 0 mm
08:48 19.2 °C 9.1 °C 1007.3 hPa NNW 7.1 km/h 14.8 km/h 52 % 0 mm
08:53 19.7 °C 9.2 °C 1007.3 hPa North 10.1 km/h 14.8 km/h 51 % 0 mm
08:58 19.9 °C 9.2 °C 1007.3 hPa North 8.9 km/h 13 km/h 50 % 0 mm
09:03 20.2 °C 8.5 °C 1007.3 hPa NW 15.6 km/h 27.8 km/h 47 % 0 mm
09:08 20.3 °C 8.6 °C 1007.3 hPa NW 13.7 km/h 18.5 km/h 47 % 0 mm
09:13 20.4 °C 8.7 °C 1007.3 hPa NNW 11.3 km/h 12.9 km/h 47 % 0 mm
09:18 20.7 °C 8.6 °C 1007.3 hPa NW 15 km/h 20.4 km/h 46 % 0 mm
09:23 20.8 °C 8.8 °C 1007.3 hPa NW 13.4 km/h 20.4 km/h 46 % 0 mm
09:28 20.9 °C 8.6 °C 1007.3 hPa NW 14.6 km/h 20.4 km/h 45 % 0 mm
09:33 21.2 °C 8.8 °C 1007.3 hPa North 9.7 km/h 14.8 km/h 45 % 0 mm
09:38 21.4 °C 8.3 °C 1007.3 hPa North 11.7 km/h 18.5 km/h 43 % 0 mm
09:43 21.7 °C 8.6 °C 1007.3 hPa NW 13 km/h 20.4 km/h 43 % 0 mm
09:48 21.9 °C 8.4 °C 1007.7 hPa NNW 13.8 km/h 16.7 km/h 42 % 0 mm
09:53 22.1 °C 8.2 °C 1007.7 hPa NNW 13.4 km/h 18.5 km/h 41 % 0 mm
09:58 22.2 °C 7.9 °C 1007.3 hPa NW 12.4 km/h 18.5 km/h 40 % 0 mm
10:03 22.5 °C 8.2 °C 1007.3 hPa NW 13.2 km/h 16.7 km/h 40 % 0 mm
10:08 22.8 °C 8.1 °C 1007.3 hPa North 11.6 km/h 16.7 km/h 39 % 0 mm
10:13 22.9 °C 7.9 °C 1007.3 hPa North 16.3 km/h 18.5 km/h 38 % 0 mm
10:18 23.2 °C 8.4 °C 1007.3 hPa North 12.9 km/h 16.7 km/h 39 % 0 mm
10:23 23.7 °C 8.5 °C 1007.3 hPa North 7.4 km/h 17.7 km/h 38 % 0 mm
10:28 24.1 °C 8.4 °C 1007.3 hPa North 8.7 km/h 13 km/h 37 % 0 mm
10:34 24.4 °C 8.3 °C 1007.3 hPa North 10.8 km/h 18.5 km/h 36 % 0 mm
10:38 24.5 °C 8.4 °C 1007.3 hPa NNW 14.3 km/h 24.1 km/h 36 % 0 mm
10:44 24.6 °C 8.5 °C 1007.3 hPa North 11.1 km/h 20.4 km/h 36 % 0 mm
10:48 24.6 °C 8.6 °C 1007.3 hPa NNW 12.9 km/h 16.7 km/h 36 % 0 mm
10:53 24.8 °C 8.7 °C 1007.3 hPa North 6.1 km/h 14.8 km/h 36 % 0 mm
10:58 25.2 °C 8.7 °C 1007.3 hPa NNW 10.9 km/h 17.7 km/h 35 % 0 mm
11:03 25.2 °C 8.7 °C 1007.3 hPa NW 13.7 km/h 16.7 km/h 35 % 0 mm
11:08 25.2 °C 8.7 °C 1007.3 hPa NNW 9 km/h 18.5 km/h 35 % 0 mm
11:13 25.4 °C 8.8 °C 1007.3 hPa NW 10.9 km/h 18.5 km/h 35 % 0 mm
11:18 25.5 °C 8.9 °C 1007.3 hPa NNW 4.5 km/h 9.3 km/h 35 % 0 mm
11:23 25.7 °C 8.7 °C 1007.3 hPa NW 9.5 km/h 19.3 km/h 34 % 0 mm
11:29 25.8 °C 8.7 °C 1007.3 hPa NW 10.8 km/h 18.5 km/h 34 % 0 mm
11:34 25.9 °C 8.8 °C 1007.3 hPa NNW 7.7 km/h 20.4 km/h 34 % 0 mm
11:39 26.2 °C 8.6 °C 1007.3 hPa NNW 11.3 km/h 16.7 km/h 33 % 0 mm
11:44 26.4 °C 8.8 °C 1007.3 hPa NNE 8.7 km/h 16.1 km/h 33 % 0 mm
11:49 26.7 °C 9.1 °C 1007.3 hPa NNW 9 km/h 16.7 km/h 33 % 0 mm
11:54 27.2 °C 9.1 °C 1007.3 hPa NW 13 km/h 18.5 km/h 32 % 0 mm
11:59 27.2 °C 9.1 °C 1007.3 hPa North 12.4 km/h 18.5 km/h 32 % 0 mm
12:04 27.1 °C 9.4 °C 1007.3 hPa WNW 12.2 km/h 19.3 km/h 33 % 0 mm
12:09 27.1 °C 9.4 °C 1007 hPa WNW 8.2 km/h 13 km/h 33 % 0 mm
12:14 27.2 °C 10 °C 1007 hPa WNW 21.4 km/h 31.5 km/h 34 % 0 mm
12:19 27.3 °C 10.1 °C 1007 hPa North 13.7 km/h 18.5 km/h 34 % 0 mm
12:24 27.4 °C 9.7 °C 1007 hPa NW 8.4 km/h 13 km/h 33 % 0 mm
12:29 27.4 °C 10.1 °C 1007 hPa West 11.7 km/h 19.3 km/h 34 % 0 mm
12:34 27.5 °C 10.2 °C 1007 hPa NW 10.6 km/h 14.8 km/h 34 % 0 mm
12:39 27.4 °C 10.2 °C 1006.7 hPa West 11.3 km/h 18.5 km/h 34 % 0 mm
12:44 27.8 °C 10.1 °C 1006.7 hPa WNW 6.9 km/h 14.8 km/h 33 % 0 mm
12:49 28 °C 10.2 °C 1006.7 hPa NNW 13.8 km/h 20.4 km/h 33 % 0 mm
12:54 27.9 °C 10.2 °C 1006.7 hPa NW 18.2 km/h 24.1 km/h 33 % 0 mm
12:59 28.1 °C 10.3 °C 1006.7 hPa WNW 24.6 km/h 35.2 km/h 33 % 0 mm
13:04 28.1 °C 10.3 °C 1006.3 hPa North 13 km/h 22.2 km/h 33 % 0 mm
13:09 28.3 °C 10.4 °C 1006.7 hPa NW 12.6 km/h 18.5 km/h 33 % 0 mm
13:14 28.3 °C 10.5 °C 1006.7 hPa North 11.7 km/h 38.9 km/h 33 % 0 mm
13:19 28.8 °C 9.5 °C 1006.7 hPa North 28.2 km/h 42.6 km/h 30 % 0 mm
13:24 28 °C 9.3 °C 1006.7 hPa West 26.4 km/h 33.3 km/h 31 % 0 mm
13:29 28.1 °C 11.2 °C 1006.7 hPa WSW 24.5 km/h 29.6 km/h 35 % 0 mm
13:34 27.9 °C 11.9 °C 1006.7 hPa SW 25.6 km/h 38.9 km/h 37 % 0 mm
13:39 27.7 °C 11.7 °C 1006.7 hPa WSW 13.8 km/h 18.5 km/h 37 % 0 mm
13:44 27.3 °C 12.1 °C 1006.7 hPa SSW 20 km/h 27.8 km/h 39 % 0 mm
13:49 26.8 °C 12.1 °C 1006.7 hPa South 14.6 km/h 22.2 km/h 40 % 0 mm
13:54 26.9 °C 12.2 °C 1006.7 hPa SSW 22.2 km/h 29.6 km/h 40 % 0 mm
13:59 26.9 °C 12.6 °C 1007 hPa North 20 km/h 25.7 km/h 41 % 0 mm
14:04 26.8 °C 12.4 °C 1007 hPa SW 6.3 km/h 11.1 km/h 41 % 0 mm
14:09 27.4 °C 10.6 °C 1006.7 hPa West 18.3 km/h 35.2 km/h 35 % 0 mm
14:14 27.9 °C 10.6 °C 1006.7 hPa WNW 20.3 km/h 29.6 km/h 34 % 0 mm
14:19 27.9 °C 9.7 °C 1006.7 hPa WNW 24.8 km/h 33.3 km/h 32 % 0 mm
14:24 28 °C 10.2 °C 1006.7 hPa WSW 24.3 km/h 38.9 km/h 33 % 0 mm
14:29 27.8 °C 9.6 °C 1006.7 hPa WSW 19.5 km/h 31.5 km/h 32 % 0 mm
14:34 27.2 °C 10.8 °C 1006.7 hPa WSW 14.2 km/h 18.5 km/h 36 % 0 mm
14:39 26.9 °C 13.3 °C 1006.7 hPa North 13.2 km/h 22.2 km/h 43 % 0 mm
14:44 26.5 °C 13.3 °C 1006.7 hPa North 12.2 km/h 14.5 km/h 44 % 0 mm
14:49 26.5 °C 13.3 °C 1006.7 hPa WSW 7.9 km/h 14.8 km/h 44 % 0 mm
14:54 27 °C 13 °C 1006.7 hPa SW 17.4 km/h 27.8 km/h 42 % 0 mm
14:59 26.7 °C 12.7 °C 1006.3 hPa South 11.1 km/h 20.4 km/h 42 % 0 mm
15:04 26.8 °C 12.8 °C 1006.7 hPa SW 15.3 km/h 20.4 km/h 42 % 0 mm
15:09 26.6 °C 13 °C 1006.3 hPa South 14 km/h 22.2 km/h 43 % 0 mm
15:14 26.8 °C 12.8 °C 1006.3 hPa SSW 16.1 km/h 24.1 km/h 42 % 0 mm
15:19 26.9 °C 12.9 °C 1006.3 hPa West 12.7 km/h 19.3 km/h 42 % 0 mm
15:24 27.2 °C 12.4 °C 1006.3 hPa SW 14.2 km/h 20.4 km/h 40 % 0 mm
15:29 26.8 °C 12.4 °C 1006.3 hPa South 12.6 km/h 27.8 km/h 41 % 0 mm
15:34 26.6 °C 11.9 °C 1006.3 hPa SSW 20.1 km/h 31.5 km/h 40 % 0 mm
15:39 26.1 °C 11.4 °C 1006.3 hPa South 22.2 km/h 29.6 km/h 40 % 0 mm
15:44 26.1 °C 11 °C 1006.7 hPa SW 24.3 km/h 27.8 km/h 39 % 0 mm
15:49 25.9 °C 11.3 °C 1006.7 hPa South 17.9 km/h 22.2 km/h 40 % 0 mm
15:54 26.1 °C 10.7 °C 1006.7 hPa SSW 20.6 km/h 31.5 km/h 38 % 0 mm
15:59 26.2 °C 10.8 °C 1006.7 hPa South 16.4 km/h 25.9 km/h 38 % 0 mm
16:04 25.8 °C 10.4 °C 1006.7 hPa SW 18 km/h 25.9 km/h 38 % 0 mm
16:09 25.9 °C 10.5 °C 1006.7 hPa WSW 21.1 km/h 27.4 km/h 38 % 0 mm
16:14 25.8 °C 10.1 °C 1006.7 hPa SW 14 km/h 18.5 km/h 37 % 0 mm
16:19 25.6 °C 9.8 °C 1006.7 hPa SW 23.5 km/h 27.8 km/h 37 % 0 mm
16:24 25.2 °C 9.4 °C 1006.7 hPa SW 18.7 km/h 27.8 km/h 37 % 0 mm
16:29 25.2 °C 9.4 °C 1007 hPa SW 16.7 km/h 24.1 km/h 37 % 0 mm
16:34 25 °C 9.3 °C 1006.7 hPa SSW 19.5 km/h 29.6 km/h 37 % 0 mm
16:39 25 °C 10.1 °C 1006.7 hPa SW 20 km/h 24.1 km/h 39 % 0 mm
16:44 24.7 °C 9.8 °C 1007 hPa SW 17.4 km/h 29.6 km/h 39 % 0 mm
16:49 24.7 °C 10.2 °C 1007 hPa WSW 21.7 km/h 30.6 km/h 40 % 0 mm
16:54 24.3 °C 9.9 °C 1007 hPa WSW 21.2 km/h 33.8 km/h 40 % 0 mm
16:59 23.9 °C 9.9 °C 1007.3 hPa SW 27 km/h 37 km/h 41 % 0 mm
17:04 24 °C 9.9 °C 1007.3 hPa SSW 21.7 km/h 31.5 km/h 41 % 0 mm
17:09 23.9 °C 9.8 °C 1007.3 hPa SSW 29 km/h 35.4 km/h 41 % 0 mm
17:14 23.5 °C 9.8 °C 1007.3 hPa SSW 29.6 km/h 38.9 km/h 42 % 0 mm
17:19 23.3 °C 10 °C 1007.7 hPa SSW 29.6 km/h 38.9 km/h 43 % 0 mm
17:24 23.1 °C 10.2 °C 1007.7 hPa South 18.5 km/h 24.1 km/h 44 % 0 mm
17:29 23.2 °C 9.9 °C 1007.7 hPa SSW 19 km/h 29.6 km/h 43 % 0 mm
17:34 23.2 °C 9.9 °C 1007.7 hPa SW 18.3 km/h 29.6 km/h 43 % 0 mm
17:39 23.2 °C 9.9 °C 1007.7 hPa SW 17.1 km/h 27.8 km/h 43 % 0 mm
17:44 23.1 °C 10.2 °C 1007.7 hPa SSW 14.8 km/h 22.2 km/h 44 % 0 mm
17:49 23.1 °C 10.1 °C 1008 hPa SSW 22.4 km/h 29 km/h 44 % 0 mm
17:54 23 °C 9.7 °C 1008 hPa SSW 26.7 km/h 38.9 km/h 43 % 0 mm
17:59 22.8 °C 9.6 °C 1008 hPa SSW 18.5 km/h 29.6 km/h 43 % 0 mm
18:04 22.8 °C 9.9 °C 1008 hPa SW 19.5 km/h 25.7 km/h 44 % 0 mm
18:09 22.7 °C 10.5 °C 1008.4 hPa SSW 20.4 km/h 31.5 km/h 46 % 0 mm
18:14 22.4 °C 10.6 °C 1008.4 hPa SW 20.1 km/h 24.1 km/h 47 % 0 mm
18:19 22.7 °C 10.5 °C 1008.4 hPa SSW 18.8 km/h 29.6 km/h 46 % 0 mm
18:24 22.7 °C 10.2 °C 1008.7 hPa SW 20.1 km/h 35.2 km/h 45 % 0 mm
18:29 22.6 °C 10 °C 1008.7 hPa SW 17.7 km/h 18.5 km/h 45 % 0 mm
18:34 22.2 °C 9.4 °C 1008.7 hPa SW 17.5 km/h 35.2 km/h 44 % 0 mm
18:39 22.1 °C 9.2 °C 1008.7 hPa SSW 18 km/h 25.9 km/h 44 % 0 mm
18:44 21.9 °C 9.4 °C 1008.7 hPa SSW 16.6 km/h 24.1 km/h 45 % 0 mm
18:49 21.8 °C 9.7 °C 1009 hPa SW 24 km/h 31.5 km/h 46 % 0 mm
18:54 21.7 °C 9.6 °C 1009 hPa SSW 22.4 km/h 31.5 km/h 46 % 0 mm
18:59 21.8 °C 9.7 °C 1009 hPa South 16.7 km/h 22.2 km/h 46 % 0 mm
19:04 21.9 °C 10.7 °C 1009.4 hPa SSW 14.2 km/h 25.7 km/h 49 % 0 mm
19:09 21.7 °C 10.8 °C 1009 hPa SSW 15.4 km/h 29.6 km/h 50 % 0 mm
19:14 21.5 °C 10.3 °C 1009.4 hPa South 19.3 km/h 22.5 km/h 49 % 0 mm
19:19 21.4 °C 10.3 °C 1009.4 hPa SW 15.4 km/h 25.9 km/h 49 % 0 mm
19:24 21.3 °C 10.1 °C 1009.4 hPa SSW 15.3 km/h 20.4 km/h 49 % 0 mm
19:29 21 °C 9.6 °C 1009.4 hPa SSW 19.8 km/h 24.1 km/h 48 % 0 mm
19:34 20.7 °C 9.3 °C 1009.7 hPa SSW 11.4 km/h 22.2 km/h 48 % 0 mm
19:39 20.5 °C 8.2 °C 1009.7 hPa North 18.3 km/h 27.8 km/h 45 % 0 mm
19:44 20.4 °C 7.8 °C 1010 hPa SW 23.7 km/h 29.6 km/h 44 % 0 mm
19:49 20.3 °C 7.7 °C 1010 hPa South 20.1 km/h 24.1 km/h 44 % 0 mm
19:54 20.1 °C 7.8 °C 1010 hPa SSW 9.7 km/h 16.7 km/h 45 % 0 mm
19:59 19.9 °C 7.7 °C 1010 hPa South 12.2 km/h 19.3 km/h 45 % 0 mm
20:04 19.8 °C 8.1 °C 1010 hPa SW 5.3 km/h 18.5 km/h 47 % 0 mm
20:10 19.6 °C 8 °C 1010 hPa SSW 13.2 km/h 18.5 km/h 47 % 0 mm
20:15 19.5 °C 8.5 °C 1010.4 hPa SSW 12.9 km/h 16.7 km/h 49 % 0 mm
20:20 19.4 °C 9 °C 1010.4 hPa South 8.4 km/h 18.5 km/h 51 % 0 mm
20:25 19.2 °C 9.4 °C 1010.4 hPa South 8.5 km/h 12.9 km/h 53 % 0 mm
20:30 19.1 °C 9.3 °C 1010.7 hPa South 7.1 km/h 13 km/h 53 % 0 mm
20:35 18.9 °C 9.1 °C 1010.7 hPa South 8.9 km/h 13 km/h 53 % 0 mm
20:40 18.7 °C 9.2 °C 1010.7 hPa South 7.6 km/h 13 km/h 54 % 0 mm
20:45 18.6 °C 9.1 °C 1010.7 hPa South 10 km/h 16.7 km/h 54 % 0 mm
20:50 18.4 °C 8.9 °C 1011.1 hPa South 9.2 km/h 18.5 km/h 54 % 0 mm
20:55 18.3 °C 9.1 °C 1011.1 hPa South 10.8 km/h 12.9 km/h 55 % 0 mm
21:00 18.2 °C 9 °C 1011.1 hPa South 9.5 km/h 16.1 km/h 55 % 0 mm
21:05 18 °C 8.8 °C 1011.1 hPa South 4.8 km/h 13 km/h 55 % 0 mm
21:10 17.9 °C 9 °C 1011.4 hPa South 7.4 km/h 16.7 km/h 56 % 0 mm
21:15 17.7 °C 9.1 °C 1011.4 hPa South 8.4 km/h 18.5 km/h 57 % 0 mm
21:20 17.6 °C 9.2 °C 1011.4 hPa South 6.3 km/h 7.4 km/h 58 % 0 mm
21:25 17.4 °C 9.1 °C 1011.7 hPa South 9.5 km/h 16.7 km/h 58 % 0 mm
21:30 17.3 °C 9.2 °C 1011.7 hPa South 4.8 km/h 11.1 km/h 59 % 0 mm
21:35 17.2 °C 9.4 °C 1011.7 hPa South 7.6 km/h 14.8 km/h 60 % 0 mm
21:40 17.1 °C 9.5 °C 1011.7 hPa South 7.2 km/h 13 km/h 61 % 0 mm
21:45 17 °C 9.7 °C 1012.1 hPa South 11.3 km/h 16.7 km/h 62 % 0 mm
21:50 16.9 °C 9.6 °C 1012.1 hPa South 8.4 km/h 20.9 km/h 62 % 0 mm
21:55 16.8 °C 9.9 °C 1012.1 hPa South 11.1 km/h 18.5 km/h 64 % 0 mm
22:00 16.7 °C 10.1 °C 1012.1 hPa South 8.4 km/h 14.8 km/h 65 % 0 mm
22:05 16.6 °C 10.2 °C 1012.4 hPa South 10.6 km/h 16.7 km/h 66 % 0 mm
22:10 16.4 °C 10.3 °C 1012.4 hPa South 8.9 km/h 18.5 km/h 67 % 0 mm
22:15 16.3 °C 10.2 °C 1012.4 hPa South 5.6 km/h 9.3 km/h 67 % 0 mm
22:20 16.3 °C 10.3 °C 1012.4 hPa South 8.2 km/h 14.8 km/h 68 % 0 mm
22:25 16.1 °C 10.2 °C 1012.4 hPa South 7.9 km/h 13 km/h 68 % 0 mm
22:30 16 °C 10.3 °C 1012.4 hPa South 7.1 km/h 11.1 km/h 69 % 0 mm
22:35 15.9 °C 10.4 °C 1012.4 hPa South 6.8 km/h 13 km/h 70 % 0 mm
22:40 15.7 °C 10.3 °C 1012.8 hPa South 1.8 km/h 5.6 km/h 70 % 0 mm
22:45 15.6 °C 10.4 °C 1012.8 hPa South 1.3 km/h 5.6 km/h 71 % 0 mm
22:50 15.4 °C 10.4 °C 1012.8 hPa South 1.9 km/h 4.8 km/h 72 % 0 mm
22:55 15.3 °C 10.3 °C 1012.8 hPa South 4 km/h 5.6 km/h 72 % 0 mm
23:00 15.2 °C 10.3 °C 1012.8 hPa South 5 km/h 6.4 km/h 73 % 0 mm
23:05 15 °C 10.2 °C 1012.8 hPa South 3.4 km/h 5.6 km/h 73 % 0 mm
23:10 14.8 °C 10.2 °C 1012.8 hPa South 1 km/h 5.6 km/h 74 % 0 mm
23:15 14.7 °C 10.3 °C 1012.8 hPa South 1.1 km/h 3.7 km/h 75 % 0 mm
23:20 14.5 °C 10.1 °C 1012.8 hPa South 1.8 km/h 3.7 km/h 75 % 0 mm
23:25 14.3 °C 10.2 °C 1012.8 hPa South 2.6 km/h 5.6 km/h 76 % 0 mm
23:30 14.2 °C 10.2 °C 1012.8 hPa South 2.9 km/h 5.6 km/h 77 % 0 mm
23:35 14.1 °C 10.1 °C 1013.1 hPa South 4.8 km/h 5.6 km/h 77 % 0 mm
23:40 14.1 °C 10.3 °C 1012.8 hPa South 3.7 km/h 5.6 km/h 78 % 0 mm
23:45 13.9 °C 10 °C 1013.1 hPa South 4 km/h 5.6 km/h 77 % 0 mm
23:50 13.9 °C 10.1 °C 1012.8 hPa North 4.3 km/h 5.6 km/h 78 % 0 mm
23:55 13.8 °C 10.2 °C 1012.8 hPa South 6 km/h 7.4 km/h 79 % 0 mm
Ararat Weather
Compliments of Weather Underground - 2.25 mb
Click here to send mail.


ABOUT

Live weather data from Ararat, Victoria, Australia, 3377
Data uploaded from Cumulus every 5 minutes to Weather Underground.
This site then downloads the raw data for formatting and display.
Metric and imperial data can be displayed. Graphs and historical data available.
Includes Sun and Moon times and rain image live from BOM.

Check out Ararat Weather on Facebook, Twitter and Google +

Help support ongoing costs by checking out the ads





Follow @AraratWeather